Terminal Aerodrome Forecast
Issued by NWS Charleston, WV

Current Version | Previous Version | Graphics & Text | Print | Product List | Glossary On
Versions: 1 2 3 4 5 6 7 8 9 10 11 12 13 14 15 16 17 18 19 20 21 22 23 24 25
110
FTUS41 KRLX 251457 AAA
TAFEKN
TAF AMD
KEKN 251457Z 2515/2612 00000KT P6SM BKN005
      TEMPO 2516/2517 BKN012
     FM251700 00000KT P6SM BKN025
     FM252100 00000KT P6SM SCT200
     FM260600 00000KT 4SM BR SCT025=

USA.gov is the U.S. government's official web portal to all federal, state and local government web resources and services.